Time;durP1;ratioP1;P1;durP2;ratioP2;P2;SDS_P1;SDS_P2;PMS_P1;PMS_P2;Temp;Humidity;BMP_temperature;BMP_pressure;BME280_temperature;BME280_humidity;BME280_pressure;Samples;Min_cycle;Max_cycle;Signal;HPM_P1;HPM_P2
2023/07/07 00:02:17;;;;;;;13.05;6.70;;;12.80;99.90;;;-144.05;75.97;56867.94;5054829;28;20139;-84
2023/07/07 00:04:43;;;;;;;8.88;4.95;;;12.90;99.90;;;-144.05;75.99;56880.69;5054709;28;20081;-84
2023/07/07 00:07:09;;;;;;;7.35;4.43;;;12.80;99.90;;;-144.05;76.14;56865.81;5054807;28;20031;-82
2023/07/07 00:09:35;;;;;;;5.90;3.88;;;12.70;99.90;;;-144.05;76.20;56861.56;5054668;28;20020;-84
2023/07/07 00:12:01;;;;;;;8.20;5.22;;;12.60;99.90;;;-144.05;76.24;56857.34;5054709;28;20070;-84
2023/07/07 00:14:27;;;;;;;11.75;6.68;;;12.60;99.90;;;-144.05;76.50;56887.06;5072572;28;20063;-84
2023/07/07 00:16:53;;;;;;;12.93;7.53;;;12.50;99.90;;;-144.05;76.53;56863.69;5054900;28;20056;-84
2023/07/07 00:19:19;;;;;;;16.60;9.27;;;12.40;99.90;;;-144.05;76.77;56863.69;5054795;28;20036;-84
2023/07/07 00:21:45;;;;;;;20.48;11.32;;;12.40;99.90;;;-144.05;77.14;56836.09;5054499;28;20119;-84
2023/07/07 00:24:11;;;;;;;17.02;8.45;;;12.40;99.90;;;-144.05;77.69;56870.06;5054333;28;20123;-82
2023/07/07 00:26:37;;;;;;;9.73;5.30;;;12.30;99.90;;;-144.05;77.91;56867.94;5043196;28;20485;-83
2023/07/07 00:29:03;;;;;;;8.07;4.55;;;12.40;99.90;;;-144.05;77.83;56870.06;5034342;28;20044;-84
2023/07/07 00:31:30;;;;;;;8.18;4.57;;;12.40;99.90;;;-144.05;78.12;56867.94;5034513;28;20025;-86
2023/07/07 00:33:55;;;;;;;6.45;4.05;;;12.40;99.90;;;-144.05;78.13;56850.97;5035935;28;20073;-87
2023/07/07 00:36:22;;;;;;;6.10;4.28;;;12.40;99.90;;;-144.05;78.13;56844.59;5036239;28;20067;-84
2023/07/07 00:38:51;;;;;;;7.85;4.32;;;12.40;99.90;;;-144.05;78.16;56865.81;5053551;28;20476;-82
2023/07/07 00:41:17;;;;;;;12.85;6.38;;;12.50;99.90;;;-144.05;77.64;56863.69;5034346;28;20029;-84
2023/07/07 00:44:11;;;;;;;16.05;8.10;;;12.60;99.90;;;-144.05;77.16;56882.81;5052232;28;20068;-84
2023/07/07 00:46:39;;;;;;;15.40;7.93;;;12.60;99.90;;;-144.05;76.84;56872.19;5034403;28;20033;-84
2023/07/07 00:49:19;;;;;;;15.32;7.45;;;12.60;99.90;;;-144.05;76.70;56848.84;5034058;28;20135;-85
2023/07/07 00:52:01;;;;;;;10.80;6.38;;;12.60;99.90;;;-144.05;76.82;56884.94;5034205;28;20021;-85
2023/07/07 00:54:35;;;;;;;7.97;5.05;;;12.60;99.90;;;-144.05;76.74;56878.56;5034055;28;20090;-83
2023/07/07 00:57:05;;;;;;;8.82;5.50;;;12.50;99.90;;;-144.05;76.69;56848.84;5034048;28;20036;-84
2023/07/07 00:59:41;;;;;;;7.57;4.00;;;12.60;99.90;;;-144.05;76.89;56870.06;5034154;28;20028;-84
2023/07/07 01:02:24;;;;;;;8.23;5.00;;;12.50;99.90;;;-144.05;77.07;56867.94;5034219;28;20033;-86
2023/07/07 01:05:05;;;;;;;6.10;3.72;;;12.50;99.90;;;-144.05;77.19;56876.44;5067527;28;20029;-79
2023/07/07 01:07:43;;;;;;;7.28;3.92;;;12.50;99.90;;;-144.05;77.40;56857.34;5046423;28;20053;-85
2023/07/07 01:10:10;;;;;;;7.63;4.43;;;12.50;99.90;;;-144.05;77.31;56850.97;5033768;28;20037;-84
2023/07/07 01:12:36;;;;;;;7.40;3.97;;;12.40;99.90;;;-144.05;77.44;56863.69;5033865;28;20052;-85
2023/07/07 01:15:03;;;;;;;8.48;4.63;;;12.50;99.90;;;-144.05;77.46;56870.06;5033911;28;20036;-83
2023/07/07 01:18:00;;;;;;;7.50;3.90;;;12.40;99.90;;;-144.05;77.17;56853.09;5033780;28;20049;-84
2023/07/07 01:20:37;;;;;;;8.65;4.10;;;12.50;99.90;;;-144.05;76.80;56842.47;5033794;28;20029;-83
2023/07/07 01:23:37;;;;;;;5.95;3.55;;;12.50;99.90;;;-144.05;76.79;56850.97;5033707;28;20029;-83
2023/07/07 01:26:14;;;;;;;8.80;5.05;;;12.50;99.90;;;-144.05;76.79;56840.34;5039739;28;20052;-86
2023/07/07 01:29:16;;;;;;;11.60;5.63;;;12.40;99.90;;;-144.05;77.04;56861.56;5053406;28;20020;-82
2023/07/07 01:32:00;;;;;;;7.05;4.50;;;12.40;99.90;;;-144.05;77.08;56848.84;5053774;28;20021;-84
2023/07/07 01:34:27;;;;;;;6.68;4.07;;;12.30;99.90;;;-144.05;77.11;56859.47;5053581;28;20039;-82
2023/07/07 01:36:53;;;;;;;5.97;3.45;;;12.30;99.90;;;-144.05;77.21;56855.22;5053344;28;20119;-85
2023/07/07 01:39:19;;;;;;;13.80;5.95;;;12.20;99.90;;;-144.05;77.39;56844.59;5053345;28;20036;-84
2023/07/07 01:42:21;;;;;;;20.75;8.10;;;12.30;99.90;;;-144.05;77.35;56880.69;5053626;28;20035;-84
2023/07/07 01:45:46;;;;;;;10.90;5.22;;;12.30;99.90;;;-144.05;77.38;56861.56;5053530;28;20396;-86
2023/07/07 01:48:41;;;;;;;7.78;3.70;;;12.30;99.90;;;-144.05;77.11;56870.06;5002944;28;20041;-83
2023/07/07 01:51:13;;;;;;;5.30;3.15;;;12.30;99.90;;;-144.05;76.85;56880.69;5071361;28;20032;-85
2023/07/07 01:53:44;;;;;;;4.95;3.28;;;12.30;99.90;;;-144.05;76.89;56872.19;5053493;28;20103;-84
2023/07/07 01:56:19;;;;;;;8.25;3.30;;;12.30;99.90;;;-144.05;76.75;56861.56;5053703;28;20159;-83
2023/07/07 01:58:48;;;;;;;6.03;3.10;;;12.30;99.90;;;-144.05;76.61;56870.06;5053430;28;20055;-85
2023/07/07 02:01:14;;;;;;;5.57;3.53;;;12.30;99.90;;;-144.05;76.40;56865.81;5071517;28;20024;-84
2023/07/07 02:03:40;;;;;;;7.28;4.18;;;12.30;99.90;;;-144.05;76.52;56861.56;5053362;28;20032;-84
2023/07/07 02:06:06;;;;;;;7.63;3.85;;;12.40;99.90;;;-144.05;76.44;56870.06;5054359;28;20032;-84
2023/07/07 02:08:32;;;;;;;6.82;4.53;;;12.30;99.90;;;-144.05;76.24;56850.97;5057079;28;20025;-84
2023/07/07 02:10:58;;;;;;;17.02;8.00;;;12.30;99.90;;;-144.05;76.37;56859.47;5056976;28;20112;-86
2023/07/07 02:13:24;;;;;;;14.15;8.65;;;12.40;99.90;;;-144.05;76.31;56863.69;5075203;28;20481;-84
2023/07/07 02:15:51;;;;;;;16.27;9.77;;;12.30;99.90;;;-144.05;76.38;56859.47;5057154;28;20064;-83
2023/07/07 02:18:19;;;;;;;20.63;10.00;;;12.30;99.90;;;-144.05;76.19;56855.22;5057480;28;20112;-83
2023/07/07 02:20:44;;;;;;;15.98;9.10;;;12.20;99.90;;;-144.05;76.46;56844.59;5057256;28;20024;-84
2023/07/07 02:23:10;;;;;;;19.48;10.50;;;12.20;99.90;;;-144.05;76.56;56846.72;5075319;28;20086;-85
2023/07/07 02:25:36;;;;;;;18.83;10.95;;;12.10;99.90;;;-144.05;76.83;56867.94;5057017;28;20020;-85
2023/07/07 02:28:02;;;;;;;16.80;8.48;;;12.00;99.90;;;-144.05;76.81;56865.81;5057389;28;20506;-83
2023/07/07 02:30:28;;;;;;;18.40;8.00;;;11.90;99.90;;;-144.05;77.17;56874.31;5057146;28;20028;-83
2023/07/07 02:32:54;;;;;;;16.83;8.93;;;11.90;99.90;;;-144.05;77.56;56865.81;5057511;28;20032;-85
2023/07/07 02:35:21;;;;;;;19.90;10.85;;;11.90;99.90;;;-144.05;77.80;56865.81;5057125;28;20032;-83
2023/07/07 02:37:46;;;;;;;21.15;10.02;;;11.90;99.90;;;-144.05;77.65;56861.56;5057671;28;20392;-84
2023/07/07 02:40:12;;;;;;;18.10;8.43;;;11.90;99.90;;;-144.05;77.91;56857.34;5056972;28;20104;-84
2023/07/07 02:42:38;;;;;;;12.80;6.30;;;11.90;99.90;;;-144.05;77.77;56846.72;5074886;28;20028;-84
2023/07/07 02:45:05;;;;;;;10.25;5.80;;;11.90;99.90;;;-144.05;78.02;56865.81;5056958;28;20051;-86
2023/07/07 02:47:31;;;;;;;15.55;6.38;;;11.90;99.90;;;-144.05;78.03;56861.56;5057289;28;20028;-84
2023/07/07 02:49:57;;;;;;;11.50;5.22;;;11.90;99.90;;;-144.05;78.15;56874.31;5073354;28;20178;-87
2023/07/07 02:52:23;;;;;;;9.48;4.45;;;11.90;99.90;;;-144.05;78.19;56853.09;5074636;28;20024;-86
2023/07/07 02:54:49;;;;;;;10.55;5.70;;;11.90;99.90;;;-144.05;78.16;56872.19;5074952;28;20027;-85
2023/07/07 02:57:15;;;;;;;13.07;5.45;;;11.90;99.90;;;-144.05;77.63;56865.81;5057358;28;20437;-87
2023/07/07 02:59:41;;;;;;;9.10;5.55;;;12.00;99.90;;;-144.05;77.54;56853.09;5081187;28;20039;-84
2023/07/07 03:02:07;;;;;;;11.23;5.75;;;11.90;99.90;;;-144.05;77.29;56884.94;5061334;28;20035;-84
2023/07/07 03:04:33;;;;;;;11.88;6.00;;;11.90;99.90;;;-144.05;77.56;56887.06;5056265;28;20112;-83
2023/07/07 03:06:59;;;;;;;7.72;4.47;;;11.90;99.90;;;-144.05;77.56;56853.09;5056467;28;20504;-84
2023/07/07 03:09:25;;;;;;;7.70;3.70;;;11.80;99.90;;;-144.05;77.61;56861.56;5056348;28;20477;-85
2023/07/07 03:11:51;;;;;;;5.03;3.22;;;11.70;99.90;;;-144.05;77.95;56876.44;5056432;28;20028;-84
2023/07/07 03:14:19;;;;;;;7.35;3.80;;;11.60;99.90;;;-144.05;78.23;56859.47;5056650;28;20028;-84
2023/07/07 03:16:59;;;;;;;9.30;4.97;;;11.50;99.90;;;-144.05;79.09;56897.69;5056086;28;20024;-85
2023/07/07 03:19:25;;;;;;;8.10;5.03;;;11.50;99.90;;;-144.05;79.05;56874.31;5074127;28;20036;-84
2023/07/07 03:21:54;;;;;;;15.95;6.50;;;11.50;99.90;;;-144.05;79.27;56870.06;5074414;28;20083;-84
2023/07/07 03:24:21;;;;;;;10.48;5.53;;;11.50;99.90;;;-144.05;78.95;56861.56;5055796;28;20028;-85
2023/07/07 03:26:47;;;;;;;12.60;6.30;;;11.50;99.90;;;-144.05;79.27;56887.06;5073948;28;20029;-83
2023/07/07 03:29:13;;;;;;;10.02;5.60;;;11.50;99.90;;;-144.05;79.49;56872.19;5056104;28;20032;-83
2023/07/07 03:31:39;;;;;;;14.48;7.20;;;11.40;99.90;;;-144.05;79.66;56878.56;5055888;28;20029;-83
2023/07/07 03:34:07;;;;;;;12.70;6.32;;;11.50;99.90;;;-144.05;79.85;56865.81;5055687;28;20125;-84
2023/07/07 03:36:35;;;;;;;7.55;4.82;;;11.40;99.90;;;-144.05;79.75;56855.22;5055453;28;20028;-84
2023/07/07 03:39:02;;;;;;;9.35;4.15;;;11.50;99.90;;;-144.05;79.84;56870.06;5055544;28;20092;-84
2023/07/07 03:41:30;;;;;;;8.38;3.95;;;11.60;99.90;;;-144.05;79.55;56891.31;5058244;28;20124;-83
2023/07/07 03:43:56;;;;;;;10.15;4.40;;;11.70;99.90;;;-144.05;79.40;56878.56;5056246;28;20036;-84
2023/07/07 03:46:27;;;;;;;10.02;5.90;;;11.90;99.90;;;-144.05;78.67;56859.47;5055922;28;20023;-85
2023/07/07 03:48:56;;;;;;;9.63;5.10;;;11.90;99.90;;;-144.05;78.25;56842.47;5056018;28;20031;-84
2023/07/07 03:51:26;;;;;;;11.65;4.97;;;12.00;99.90;;;-144.05;77.51;56882.81;5055692;28;20509;-85
2023/07/07 03:53:53;;;;;;;7.32;4.40;;;12.10;99.90;;;-144.05;77.03;56855.22;5055648;28;20520;-85
2023/07/07 03:56:20;;;;;;;8.10;4.03;;;12.20;99.90;;;-144.05;76.43;56872.19;5055408;28;20028;-83
2023/07/07 03:58:47;;;;;;;8.23;4.18;;;12.20;99.90;;;-144.05;75.72;56836.09;5055101;28;20452;-83
2023/07/07 04:01:14;;;;;;;7.95;3.95;;;12.40;99.90;;;-144.05;75.30;56861.56;5055079;28;20173;-85
2023/07/07 04:03:43;;;;;;;7.75;4.25;;;12.50;99.90;;;-144.05;74.87;56874.31;5055226;28;20094;-84
2023/07/07 04:06:09;;;;;;;7.88;3.80;;;12.60;99.90;;;-144.05;74.29;56870.06;5055280;28;20056;-83
2023/07/07 04:08:35;;;;;;;6.05;3.22;;;12.60;99.90;;;-144.05;74.06;56863.69;5055137;28;20032;-82
2023/07/07 04:11:05;;;;;;;11.13;5.40;;;12.60;99.90;;;-144.05;73.64;56842.47;5055067;28;20028;-86
2023/07/07 04:13:42;;;;;;;9.60;4.60;;;12.60;99.90;;;-144.05;73.55;56867.94;5073200;28;20101;-84
2023/07/07 04:16:17;;;;;;;7.50;4.28;;;12.50;99.90;;;-144.05;73.75;56846.72;5054842;28;20113;-83
2023/07/07 04:18:45;;;;;;;6.60;3.60;;;12.50;99.90;;;-144.05;73.38;56874.31;5054851;28;20120;-84
2023/07/07 04:21:20;;;;;;;6.95;4.45;;;12.50;99.90;;;-144.05;73.12;56887.06;5054797;28;20072;-83
2023/07/07 04:23:51;;;;;;;8.15;4.28;;;12.60;99.90;;;-144.05;72.69;56861.56;5055178;28;20416;-83
2023/07/07 04:26:20;;;;;;;10.02;5.15;;;12.70;99.90;;;-144.05;72.43;56859.47;5054682;28;20032;-84
2023/07/07 04:28:47;;;;;;;7.97;4.05;;;12.70;99.90;;;-144.05;72.26;56840.34;5054883;28;20025;-83
2023/07/07 04:31:14;;;;;;;7.85;4.03;;;12.80;99.90;;;-144.05;71.70;56884.94;5072945;28;20025;-85
2023/07/07 04:33:40;;;;;;;6.55;3.72;;;12.90;99.90;;;-144.05;71.37;56863.69;5054974;28;20024;-85
2023/07/07 04:36:12;;;;;;;7.40;4.20;;;13.00;99.90;;;-144.05;70.96;56887.06;5054688;28;20115;-85
2023/07/07 04:39:10;;;;;;;6.40;3.30;;;13.10;99.90;;;-144.05;70.53;56863.69;5054909;28;20028;-85
2023/07/07 04:41:36;;;;;;;7.20;3.58;;;13.20;99.90;;;-144.05;70.13;56853.09;5055126;28;20028;-85
2023/07/07 04:44:08;;;;;;;6.35;3.40;;;13.30;99.90;;;-144.05;69.95;56872.19;5055465;28;20097;-85
2023/07/07 04:46:39;;;;;;;5.53;3.25;;;13.40;99.90;;;-144.05;70.10;56827.59;5054918;28;20078;-85
2023/07/07 04:49:07;;;;;;;6.78;3.00;;;13.50;99.90;;;-144.05;70.13;56863.69;5055154;28;20020;-86
2023/07/07 04:51:40;;;;;;;4.50;3.03;;;13.60;99.90;;;-144.05;70.36;56831.84;5056352;28;20029;-88
2023/07/07 04:54:12;;;;;;;6.43;3.20;;;13.80;99.90;;;-144.05;70.31;56876.44;5079839;28;20024;-87
2023/07/07 04:56:37;;;;;;;7.85;3.45;;;13.80;99.90;;;-144.05;69.88;56846.72;5058774;28;20492;-84
2023/07/07 04:59:06;;;;;;;8.43;3.88;;;14.10;99.90;;;-144.05;70.01;56861.56;5057511;28;20040;-85
2023/07/07 05:01:33;;;;;;;7.65;3.78;;;14.10;99.90;;;-144.05;69.83;56863.69;5056692;28;20511;-84
2023/07/07 05:04:03;;;;;;;5.43;3.30;;;14.30;99.90;;;-144.05;69.52;56874.31;5057271;28;20039;-83
2023/07/07 05:06:36;;;;;;;6.65;3.20;;;14.40;99.90;;;-144.05;68.82;56870.06;5057162;28;20016;-85
2023/07/07 05:09:04;;;;;;;4.90;3.15;;;14.60;99.90;;;-144.05;68.29;56889.19;5075158;28;20029;-83
2023/07/07 05:12:10;;;;;;;5.93;3.20;;;14.80;99.90;;;-144.05;66.95;56855.22;5074264;28;20287;-83
2023/07/07 05:14:36;;;;;;;6.30;3.20;;;15.00;99.90;;;-144.05;66.31;56850.97;5057195;28;20021;-84
2023/07/07 05:17:02;;;;;;;7.20;3.25;;;15.30;99.90;;;-144.05;65.02;56865.81;5056860;28;20367;-82
2023/07/07 05:19:27;;;;;;;10.63;3.05;;;15.50;99.90;;;-144.05;64.57;56865.81;5056790;28;20035;-84
2023/07/07 05:21:53;;;;;;;6.25;2.95;;;15.70;99.90;;;-144.05;63.88;56865.81;5056432;28;20048;-85
2023/07/07 05:24:19;;;;;;;6.10;3.10;;;15.90;99.90;;;-144.05;63.17;56872.19;5073323;28;20036;-85
2023/07/07 05:26:45;;;;;;;5.35;3.05;;;16.20;99.90;;;-144.05;62.81;56867.94;5057320;28;20032;-82
2023/07/07 05:29:12;;;;;;;5.13;2.85;;;16.40;99.90;;;-144.05;61.65;56870.06;5056205;28;20024;-85
2023/07/07 05:31:46;;;;;;;6.40;3.25;;;16.70;99.90;;;-144.05;61.11;56895.56;5056650;28;20035;-86
2023/07/07 05:34:12;;;;;;;6.55;2.72;;;17.00;99.90;;;-144.05;60.23;56867.94;5073094;28;20094;-87
2023/07/07 05:36:38;;;;;;;3.95;2.60;;;17.20;99.90;;;-144.05;58.94;56876.44;5075834;28;20044;-86
2023/07/07 05:39:06;;;;;;;6.50;2.63;;;17.40;99.90;;;-144.05;57.39;56857.34;5076537;28;20039;-84
2023/07/07 05:41:33;;;;;;;8.50;2.88;;;17.70;99.90;;;-144.05;56.69;56891.31;5093919;28;20021;-87
2023/07/07 05:43:58;;;;;;;9.82;2.75;;;17.90;99.90;;;-144.05;55.62;56876.44;5061893;28;20461;-84
2023/07/07 05:46:24;;;;;;;6.85;2.88;;;18.20;99.90;;;-144.05;54.70;56874.31;5060569;28;20121;-85
2023/07/07 05:48:50;;;;;;;5.28;2.20;;;18.40;99.90;;;-144.05;53.77;56893.44;5060779;28;20033;-84
2023/07/07 05:51:19;;;;;;;5.53;2.60;;;18.70;99.90;;;-144.05;52.46;56891.31;5060897;28;20024;-85
2023/07/07 05:53:47;;;;;;;3.20;2.10;;;19.00;99.90;;;-144.05;48.46;56884.94;5060776;28;20082;-83
2023/07/07 05:56:25;;;;;;;4.88;2.50;;;19.30;99.90;;;-144.05;46.72;56904.06;5061110;28;20044;-85
2023/07/07 05:58:55;;;;;;;6.30;2.30;;;19.60;99.90;;;-144.05;48.66;56906.19;5059920;28;20052;-87
2023/07/07 06:01:22;;;;;;;3.45;2.17;;;19.90;99.90;;;-144.05;46.05;56893.44;5077355;28;20397;-88
2023/07/07 06:03:48;;;;;;;5.10;2.00;;;20.10;99.90;;;-144.05;44.76;56906.19;5094939;28;20024;-86
2023/07/07 06:06:14;;;;;;;5.13;2.00;;;20.40;99.90;;;-144.05;44.01;56910.44;5081729;28;20063;-86
2023/07/07 06:08:41;;;;;;;4.90;2.20;;;20.70;99.90;;;-144.05;42.96;56942.28;5082618;28;20042;-82
2023/07/07 06:11:07;;;;;;;7.00;2.20;;;21.00;99.90;;;-144.05;41.16;56906.19;5100299;28;20032;-86
2023/07/07 06:13:46;;;;;;;3.72;1.75;;;21.20;99.90;;;-144.05;40.83;56944.41;5090634;28;20050;-85
2023/07/07 06:16:11;;;;;;;3.45;2.08;;;21.40;99.90;;;-144.05;39.69;56933.78;5060546;28;20029;-86
2023/07/07 06:18:39;;;;;;;3.08;1.80;;;21.60;99.90;;;-144.05;39.39;56942.28;5060712;28;20177;-84
2023/07/07 06:21:05;;;;;;;5.22;1.92;;;21.90;99.90;;;-144.05;39.68;56961.41;5060816;28;20024;-85
2023/07/07 06:23:33;;;;;;;4.18;2.03;;;22.10;99.90;;;-144.05;38.13;56938.03;5060483;28;20411;-86
2023/07/07 06:25:59;;;;;;;4.60;1.77;;;22.20;99.90;;;-144.05;38.82;56942.28;5072400;28;20025;-85
2023/07/07 06:28:25;;;;;;;3.75;1.65;;;22.20;99.90;;;-144.05;37.36;56927.41;5057458;28;20036;-84
2023/07/07 06:30:53;;;;;;;3.15;1.80;;;22.30;99.90;;;-144.05;37.63;56946.53;5040365;28;20369;-87
2023/07/07 06:33:21;;;;;;;3.53;1.75;;;22.60;99.90;;;-144.05;36.86;56972.03;5040915;28;20049;-83
2023/07/07 06:35:48;;;;;;;4.25;1.85;;;22.80;99.90;;;-144.05;36.90;56967.78;5040386;28;20082;-85
2023/07/07 06:38:15;;;;;;;3.88;1.73;;;23.10;99.90;;;-144.05;35.75;56967.78;5040645;28;20025;-86
2023/07/07 06:40:41;;;;;;;3.97;1.88;;;23.10;99.90;;;-144.05;36.76;56967.78;5040907;28;20039;-86
2023/07/07 06:43:07;;;;;;;4.45;2.15;;;23.40;99.90;;;-144.05;35.05;56986.91;5040814;28;20029;-86
2023/07/07 06:45:34;;;;;;;4.22;2.20;;;23.60;99.90;;;-144.05;35.11;56989.00;5049308;28;20032;-82
2023/07/07 06:48:05;;;;;;;2.83;2.00;;;23.60;99.50;;;-144.05;35.03;56974.16;5056401;28;20033;-84
2023/07/07 06:50:37;;;;;;;4.18;1.90;;;23.70;99.60;;;-144.05;34.79;56999.63;5040133;28;20085;-83
2023/07/07 06:53:03;;;;;;;4.10;1.95;;;24.00;98.20;;;-144.05;34.41;57010.25;5039440;28;20416;-85
2023/07/07 06:55:29;;;;;;;7.35;2.42;;;24.20;97.60;;;-144.05;33.46;56989.00;5039829;28;20025;-85
2023/07/07 06:57:55;;;;;;;4.13;2.10;;;24.20;96.90;;;-144.05;34.41;57006.00;5039819;28;20031;-84
2023/07/07 07:00:21;;;;;;;7.20;3.13;;;24.30;98.30;;;-144.05;34.22;57016.63;5039258;28;20037;-85
2023/07/07 07:02:49;;;;;;;6.05;2.53;;;24.40;97.60;;;-144.05;33.67;56984.78;5038936;28;20025;-85
2023/07/07 07:05:16;;;;;;;3.58;2.30;;;24.50;96.00;;;-144.05;34.46;57001.75;5039172;28;20063;-85
2023/07/07 07:07:41;;;;;;;7.13;2.53;;;24.60;97.30;;;-144.05;33.08;57006.00;5039066;28;20440;-85
2023/07/07 07:10:10;;;;;;;7.55;2.70;;;24.70;93.90;;;-144.05;33.14;56993.25;5039459;28;20029;-82
2023/07/07 07:12:37;;;;;;;8.63;2.70;;;24.90;94.80;;;-144.05;32.83;57006.00;5043496;28;20424;-86
2023/07/07 07:15:04;;;;;;;6.32;2.72;;;24.90;94.00;;;-144.05;32.76;57033.63;5041047;28;20029;-84
2023/07/07 07:17:30;;;;;;;4.18;2.05;;;25.10;93.60;;;-144.05;32.24;57018.75;5041452;28;20072;-87
2023/07/07 07:20:00;;;;;;;6.78;2.25;;;25.40;92.10;;;-144.05;32.70;57035.75;5040930;28;20017;-85
2023/07/07 07:22:26;;;;;;;6.00;2.72;;;25.70;93.80;;;-144.05;32.38;57065.47;5058775;28;20021;-84
2023/07/07 07:24:52;;;;;;;3.08;1.83;;;25.90;92.30;;;-144.05;32.16;57086.72;5041041;28;20120;-85
2023/07/07 07:27:18;;;;;;;7.13;2.63;;;26.20;92.00;;;-144.05;31.27;57078.22;5040316;28;20487;-85
2023/07/07 07:29:45;;;;;;;4.10;2.05;;;26.10;90.60;;;-144.05;31.19;57048.50;5040290;28;20163;-86
2023/07/07 07:32:12;;;;;;;4.40;2.10;;;26.10;89.70;;;-144.05;31.07;57073.97;5039253;28;20025;-86
2023/07/07 07:34:41;;;;;;;4.70;2.05;;;26.40;89.10;;;-144.05;29.95;57065.47;5040602;28;20025;-86
2023/07/07 07:37:07;;;;;;;4.70;2.00;;;26.30;84.70;;;-144.05;30.78;57069.72;5039791;28;20439;-85
2023/07/07 07:39:34;;;;;;;8.25;2.47;;;26.40;85.90;;;-144.05;30.59;57061.22;5039797;28;20079;-85
2023/07/07 07:42:02;;;;;;;5.63;1.88;;;26.30;85.80;;;-144.05;30.49;57048.50;5058387;28;20029;-86
2023/07/07 07:44:29;;;;;;;2.58;2.03;;;26.30;85.00;;;-144.05;30.77;57086.72;5040051;28;20077;-83
2023/07/07 07:46:58;;;;;;;5.15;2.13;;;26.50;86.60;;;-144.05;30.18;57095.22;5040694;28;20087;-86
2023/07/07 07:49:27;;;;;;;5.57;1.85;;;26.70;83.50;;;-144.05;30.00;57086.72;5039987;28;20032;-86
2023/07/07 07:51:56;;;;;;;3.50;2.05;;;26.90;84.40;;;-144.05;29.88;57090.97;5040151;28;20030;-85
2023/07/07 07:54:24;;;;;;;3.22;2.00;;;26.80;82.10;;;-144.05;29.91;57101.59;5040353;28;20032;-86
2023/07/07 07:56:51;;;;;;;5.97;1.90;;;26.90;81.30;;;-144.05;30.14;57099.47;5039633;28;20123;-86
2023/07/07 07:59:18;;;;;;;4.43;1.98;;;27.00;82.60;;;-144.05;30.11;57103.72;5039763;28;20037;-84
2023/07/07 08:01:44;;;;;;;4.93;2.33;;;27.40;80.30;;;-144.05;28.61;57124.97;5039853;28;20440;-87
2023/07/07 08:04:14;;;;;;;5.10;1.98;;;27.40;77.10;;;-144.05;28.89;57118.59;5038560;28;20025;-87
2023/07/07 08:06:42;;;;;;;5.00;1.88;;;27.70;77.20;;;-144.05;28.73;57146.19;5039222;28;20028;-85
2023/07/07 08:09:11;;;;;;;3.15;1.73;;;27.70;76.90;;;-144.05;28.66;57150.44;5039693;28;20021;-86
2023/07/07 08:11:43;;;;;;;6.93;2.10;;;28.00;75.70;;;-144.05;29.04;57144.06;5039840;28;20059;-86
2023/07/07 08:14:16;;;;;;;3.42;1.80;;;28.20;77.80;;;-144.05;27.91;57167.44;5039264;28;20028;-86
2023/07/07 08:16:44;;;;;;;6.43;1.73;;;28.00;73.50;;;-144.05;27.70;57137.69;5039750;28;20504;-84
2023/07/07 08:19:10;;;;;;;5.85;2.25;;;28.10;71.60;;;-144.05;27.84;57144.06;5038851;28;20032;-84
2023/07/07 08:21:39;;;;;;;3.30;1.73;;;27.90;71.70;;;-144.05;28.19;57148.31;5039670;28;20094;-85
2023/07/07 08:24:06;;;;;;;4.82;1.90;;;28.10;72.80;;;-144.05;29.50;57169.56;5038577;28;20025;-85
2023/07/07 08:26:34;;;;;;;5.07;1.90;;;28.50;77.20;;;-144.05;27.96;57184.44;5067327;28;20044;-87
2023/07/07 08:29:00;;;;;;;3.95;1.80;;;28.50;72.30;;;-144.05;27.72;57150.44;5058749;28;20029;-86
2023/07/07 08:31:26;;;;;;;5.38;2.22;;;28.50;71.30;;;-144.05;27.58;57180.19;5059779;28;20025;-85
2023/07/07 08:33:53;;;;;;;5.10;1.65;;;28.60;70.60;;;-144.05;26.60;57171.69;5059066;28;20039;-84
2023/07/07 08:36:19;;;;;;;4.93;2.10;;;28.40;67.70;;;-144.05;27.11;57190.81;5059441;28;20035;-89
2023/07/07 08:38:46;;;;;;;5.20;1.90;;;28.80;68.20;;;-144.05;26.65;57180.19;5077519;28;20080;-79
2023/07/07 08:41:12;;;;;;;4.60;1.58;;;28.90;66.10;;;-144.05;27.23;57188.69;5083917;28;20040;-86
2023/07/07 08:43:41;;;;;;;3.13;1.58;;;28.80;67.20;;;-144.05;26.54;57173.81;5057236;28;20542;-87
2023/07/07 08:46:45;;;;;;;3.33;1.52;;;28.60;63.70;;;-144.05;26.57;57182.31;5058289;28;20024;-85
2023/07/07 08:49:35;;;;;;;3.65;1.67;;;28.90;65.10;;;-144.05;25.90;57195.06;5043159;28;20082;-85
2023/07/07 08:52:22;;;;;;;2.88;1.67;;;28.90;62.20;;;-144.05;27.11;57186.56;5057771;28;20028;-84
2023/07/07 08:55:13;;;;;;;1.90;1.35;;;28.50;66.30;;;-144.05;24.94;57195.06;5058425;28;20107;-84
2023/07/07 08:58:13;;;;;;;2.63;1.60;;;28.90;60.30;;;-144.05;25.09;57205.66;5058441;28;20055;-86
2023/07/07 09:01:33;;;;;;;2.63;1.52;;;28.90;60.30;;;-144.05;24.47;57190.81;5058634;28;20352;-85
2023/07/07 09:04:42;;;;;;;3.53;1.50;;;29.20;59.70;;;-144.05;25.16;57222.66;5059156;28;20476;-84
2023/07/07 09:07:56;;;;;;;3.20;1.13;;;29.40;59.30;;;-144.05;24.89;57192.94;5058925;28;20032;-85
2023/07/07 09:10:35;;;;;;;4.75;1.55;;;29.20;58.10;;;-144.05;25.23;57226.91;5009470;28;20041;-85
2023/07/07 09:13:23;;;;;;;3.10;1.67;;;29.30;59.60;;;-144.05;25.19;57192.94;5058803;28;20071;-84
2023/07/07 09:16:14;;;;;;;2.22;1.40;;;29.30;58.80;;;-144.05;24.48;57182.31;5056992;28;20038;-86
2023/07/07 09:18:59;;;;;;;4.50;1.30;;;29.20;57.70;;;-144.05;25.36;57197.19;5061404;28;20109;-87
2023/07/07 09:22:02;;;;;;;2.50;1.33;;;29.40;59.00;;;-144.05;24.70;57235.41;5066073;28;20538;-85
2023/07/07 09:24:34;;;;;;;3.50;1.60;;;29.60;56.90;;;-144.05;24.74;57231.16;5064094;28;20044;-87
2023/07/07 09:27:21;;;;;;;6.15;1.80;;;29.80;56.60;;;-144.05;25.36;57231.16;5075341;28;20040;-83
2023/07/07 09:30:00;;;;;;;2.08;1.52;;;29.60;58.30;;;-144.05;25.53;57216.28;5078456;28;20047;-87
2023/07/07 09:32:27;;;;;;;5.10;1.67;;;29.70;58.60;;;-144.05;24.59;57192.94;5057841;28;20032;-85
2023/07/07 09:34:53;;;;;;;2.22;1.45;;;29.40;56.50;;;-144.05;24.86;57218.41;5057024;28;20020;-85
2023/07/07 09:37:49;;;;;;;5.15;1.42;;;29.50;56.90;;;-144.05;24.86;57195.06;5075455;28;20028;-84
2023/07/07 09:40:25;;;;;;;4.00;1.77;;;29.50;57.80;;;-144.05;24.45;57233.28;5075627;28;20476;-84
2023/07/07 09:44:08;;;;;;;3.95;1.75;;;29.50;55.20;;;-144.05;24.49;57229.03;5058358;28;20411;-84
2023/07/07 09:47:22;;;;;;;2.10;1.50;;;29.50;56.40;;;-144.05;25.29;57246.03;5057593;28;20205;-83
2023/07/07 09:50:01;;;;;;;1.73;1.45;;;30.00;58.60;;;-144.05;24.34;57256.66;5056791;28;20032;-85
2023/07/07 09:53:12;;;;;;;2.92;1.65;;;30.00;55.50;;;-144.05;24.13;57252.41;5057060;28;20062;-87
2023/07/07 09:55:41;;;;;;;2.20;1.60;;;30.00;56.30;;;-144.05;24.95;57263.03;5076386;28;20032;-86
2023/07/07 09:58:47;;;;;;;3.33;1.75;;;29.70;57.20;;;-144.05;25.61;57214.16;5059309;28;20024;-85
2023/07/07 10:01:28;;;;;;;;;;;;;;;;;;;;;
2023/07/07 10:03:56;;;;;;;3.17;1.70;;;29.90;58.60;;;-144.05;24.69;57248.16;5075035;28;20025;-86
2023/07/07 10:06:57;;;;;;;2.60;1.42;;;29.90;56.40;;;-144.05;25.05;57243.91;5056914;28;20025;-87
2023/07/07 10:09:34;;;;;;;;;;;;;;;;;;;;;
2023/07/07 10:12:39;;;;;;;;;;;;;;;;;;;;;
2023/07/07 10:15:53;;;;;;;2.60;1.50;;;30.30;57.60;;;-144.05;25.14;57239.66;5074585;28;20576;-88
2023/07/07 10:18:32;;;;;;;2.33;1.60;;;30.30;56.10;;;-144.05;24.64;57201.44;5074834;28;20028;-86
2023/07/07 10:21:06;;;;;;;3.30;1.75;;;30.50;55.30;;;-144.05;24.23;57235.41;5057548;28;20510;-87
2023/07/07 10:23:35;;;;;;;2.83;1.55;;;30.30;54.30;;;-144.05;24.11;57265.16;5057441;28;20082;-88
2023/07/07 10:26:02;;;;;;;3.75;1.98;;;30.20;53.90;;;-144.05;24.98;57209.91;5052419;28;20049;-89
2023/07/07 10:28:28;;;;;;;2.63;1.65;;;30.00;56.20;;;-144.05;24.18;57222.66;5059494;28;20083;-88
2023/07/07 10:30:54;;;;;;;4.28;1.73;;;30.20;54.30;;;-144.05;25.86;57248.16;5061864;28;20025;-82